createdAt,value
2022-08-16T00:02:34.388Z,23.20
2022-08-16T00:05:03.547Z,23.20
2022-08-16T00:07:33.958Z,23.20
2022-08-16T00:10:03.607Z,23.20
2022-08-16T00:12:32.549Z,23.20
2022-08-16T00:15:04.427Z,23.20
2022-08-16T00:17:56.177Z,23.10
2022-08-16T00:20:26.403Z,23.00
2022-08-16T00:22:56.375Z,23.00
2022-08-16T00:26:33.776Z,23.00
2022-08-16T00:28:16.160Z,23.00
2022-08-16T00:30:44.878Z,23.00
2022-08-16T00:33:13.508Z,23.10
2022-08-16T00:35:41.998Z,23.10
2022-08-16T00:38:40.240Z,23.00
2022-08-16T00:41:02.048Z,23.00
2022-08-16T00:43:42.536Z,23.00
2022-08-16T00:46:32.929Z,23.00
2022-08-16T00:49:06.058Z,23.00
2022-08-16T00:51:35.037Z,23.20
2022-08-16T00:54:11.656Z,23.10
2022-08-16T00:56:58.341Z,23.00
2022-08-16T00:59:34.463Z,23.00
2022-08-16T01:02:30.993Z,23.00
2022-08-16T01:05:09.484Z,23.00
2022-08-16T01:07:51.294Z,22.90
2022-08-16T01:10:32.653Z,22.80
2022-08-16T01:13:06.271Z,22.70
2022-08-16T01:15:35.743Z,22.70
2022-08-16T01:18:06.078Z,22.70
2022-08-16T01:20:39.345Z,22.70
2022-08-16T01:23:18.006Z,22.70
2022-08-16T01:25:59.956Z,22.70
2022-08-16T01:28:45.213Z,22.80
2022-08-16T01:31:16.038Z,22.80
2022-08-16T01:33:44.854Z,22.80
2022-08-16T01:36:19.534Z,22.70
2022-08-16T01:38:57.021Z,22.70
2022-08-16T01:41:31.774Z,22.70
2022-08-16T01:44:07.187Z,22.70
2022-08-16T01:46:40.789Z,22.70
2022-08-16T01:49:18.345Z,22.70
2022-08-16T01:51:52.204Z,22.70
2022-08-16T01:54:31.131Z,22.70
2022-08-16T01:57:03.472Z,22.70
2022-08-16T01:59:34.736Z,22.70
2022-08-16T02:02:03.622Z,22.70
2022-08-16T02:04:54.838Z,22.60
2022-08-16T02:07:26.291Z,22.60
2022-08-16T02:09:57.470Z,22.60
2022-08-16T02:12:52.587Z,22.60
2022-08-16T02:15:28.641Z,22.60
2022-08-16T02:18:01.138Z,22.50
2022-08-16T02:20:33.627Z,22.50
2022-08-16T02:23:05.911Z,22.40
2022-08-16T02:25:52.176Z,22.40
2022-08-16T02:28:26.829Z,22.40
2022-08-16T02:30:57.771Z,22.40
2022-08-16T02:33:44.642Z,22.50
2022-08-16T02:36:42.433Z,22.50
2022-08-16T02:39:14.863Z,22.50
2022-08-16T02:41:53.267Z,22.50
2022-08-16T02:44:27.073Z,22.50
2022-08-16T02:46:57.796Z,22.60
2022-08-16T02:49:58.555Z,22.50
2022-08-16T02:52:24.870Z,22.50
2022-08-16T02:55:01.919Z,22.40
2022-08-16T02:57:33.570Z,22.40
2022-08-16T03:00:31.909Z,22.40
2022-08-16T03:02:59.955Z,22.50
2022-08-16T03:05:30.999Z,22.50
2022-08-16T03:08:02.686Z,22.60
2022-08-16T03:10:37.047Z,22.60
2022-08-16T03:13:12.470Z,22.50
2022-08-16T03:15:45.206Z,22.40
2022-08-16T03:18:34.196Z,22.40
2022-08-16T03:21:03.880Z,22.30
2022-08-16T03:23:36.157Z,22.30
2022-08-16T03:26:07.087Z,22.20
2022-08-16T03:28:36.783Z,22.30
2022-08-16T03:31:08.806Z,22.20
2022-08-16T03:33:39.424Z,22.30
2022-08-16T03:36:19.848Z,22.30
2022-08-16T03:39:00.823Z,22.30
2022-08-16T03:41:35.433Z,22.40
2022-08-16T03:44:43.451Z,22.30
2022-08-16T03:47:13.625Z,22.30
2022-08-16T03:49:52.002Z,22.30
2022-08-16T03:52:23.493Z,22.30
2022-08-16T03:54:58.059Z,22.20
2022-08-16T03:57:32.045Z,22.20
2022-08-16T04:00:20.449Z,22.10
2022-08-16T04:03:08.536Z,22.10
2022-08-16T04:05:47.398Z,22.10
2022-08-16T04:08:23.381Z,22.10
2022-08-16T04:11:00.709Z,22.20
2022-08-16T04:14:00.563Z,22.20
2022-08-16T04:16:27.171Z,22.20
2022-08-16T04:19:05.062Z,22.30
2022-08-16T04:21:45.925Z,22.30
2022-08-16T04:24:21.042Z,22.20
2022-08-16T04:26:50.082Z,22.30
2022-08-16T04:29:24.242Z,22.30
2022-08-16T04:31:57.941Z,22.40
2022-08-16T04:34:39.302Z,22.40
2022-08-16T04:37:10.383Z,22.40
2022-08-16T04:39:46.714Z,22.40
2022-08-16T04:42:17.995Z,22.50
2022-08-16T04:44:54.565Z,22.60
2022-08-16T04:47:33.114Z,22.60
2022-08-16T04:50:06.825Z,22.50
2022-08-16T04:52:38.013Z,22.50
2022-08-16T04:55:09.738Z,22.60
2022-08-16T04:57:43.495Z,22.60
2022-08-16T05:00:31.811Z,22.70
2022-08-16T05:03:15.419Z,22.80
2022-08-16T05:05:59.077Z,23.00
2022-08-16T05:08:32.651Z,23.10
2022-08-16T05:11:10.190Z,23.10
2022-08-16T05:13:42.843Z,23.20
2022-08-16T05:16:24.098Z,23.20
2022-08-16T05:19:02.345Z,23.30
2022-08-16T05:21:38.853Z,23.30
2022-08-16T05:24:11.769Z,23.30
2022-08-16T05:26:48.124Z,23.30
2022-08-16T05:29:21.812Z,23.30
2022-08-16T05:32:32.816Z,23.40
2022-08-16T05:34:56.649Z,23.40
2022-08-16T05:37:26.594Z,23.50
2022-08-16T05:40:09.513Z,23.50
2022-08-16T05:42:47.598Z,23.60
2022-08-16T05:45:21.390Z,23.70
2022-08-16T05:48:00.354Z,23.80
2022-08-16T05:50:53.187Z,23.80
2022-08-16T05:53:24.787Z,23.90
2022-08-16T05:56:12.276Z,24.10
2022-08-16T05:58:49.532Z,24.20
2022-08-16T06:01:21.044Z,24.20
2022-08-16T06:03:53.301Z,24.30
2022-08-16T06:06:36.407Z,24.40
2022-08-16T06:09:11.740Z,24.60
2022-08-16T06:11:43.732Z,24.70
2022-08-16T06:14:12.857Z,24.80
2022-08-16T06:16:50.710Z,24.90
2022-08-16T06:19:21.411Z,25.10
2022-08-16T06:22:02.734Z,25.20
2022-08-16T06:24:55.235Z,25.20
2022-08-16T06:27:25.597Z,25.30
2022-08-16T06:30:10.200Z,25.50
2022-08-16T06:32:48.439Z,25.70
2022-08-16T06:35:18.447Z,25.90
2022-08-16T06:37:51.243Z,26.10
2022-08-16T06:40:22.588Z,26.20
2022-08-16T06:43:03.763Z,26.40
2022-08-16T06:45:55.088Z,26.50
2022-08-16T06:48:33.160Z,26.60
2022-08-16T06:51:05.864Z,26.50
2022-08-16T06:53:38.553Z,26.50
2022-08-16T06:56:14.195Z,26.50
2022-08-16T06:59:02.665Z,26.50
2022-08-16T07:01:44.761Z,26.30
2022-08-16T07:04:32.654Z,26.40
2022-08-16T07:07:14.755Z,26.50
2022-08-16T07:09:44.479Z,26.50
2022-08-16T07:12:15.431Z,26.50
2022-08-16T07:14:47.978Z,26.50
2022-08-16T07:17:21.640Z,26.50
2022-08-16T07:20:02.889Z,26.50
2022-08-16T07:22:59.173Z,26.30
2022-08-16T07:25:44.342Z,26.20
2022-08-16T07:28:20.707Z,26.20
2022-08-16T07:30:54.875Z,26.20
2022-08-16T07:33:53.737Z,26.00
2022-08-16T07:36:30.839Z,25.90
2022-08-16T07:39:01.041Z,25.90
2022-08-16T07:41:36.015Z,26.00
2022-08-16T07:44:16.331Z,26.10
2022-08-16T07:46:47.966Z,26.20
2022-08-16T07:49:25.032Z,26.40
2022-08-16T07:51:54.531Z,26.70
2022-08-16T07:54:32.120Z,26.70
2022-08-16T07:57:04.155Z,26.70
2022-08-16T07:59:42.845Z,26.90
2022-08-16T08:02:20.069Z,27.10
2022-08-16T08:04:55.311Z,27.20
2022-08-16T08:07:27.618Z,27.30
2022-08-16T08:09:58.253Z,27.40
2022-08-16T08:12:32.006Z,27.50
2022-08-16T08:15:13.053Z,27.60
2022-08-16T08:17:44.880Z,27.70
2022-08-16T08:20:28.496Z,27.70
2022-08-16T08:23:02.723Z,27.70
2022-08-16T08:25:54.061Z,27.90
2022-08-16T08:28:27.654Z,27.90
2022-08-16T08:31:08.364Z,28.10
2022-08-16T08:33:43.880Z,28.10
2022-08-16T08:36:23.906Z,28.10
2022-08-16T08:39:13.177Z,28.20
2022-08-16T08:41:43.817Z,28.20
2022-08-16T08:44:28.747Z,28.40
2022-08-16T08:47:09.232Z,28.30
2022-08-16T08:49:46.756Z,28.30
2022-08-16T08:52:33.683Z,28.40
2022-08-16T08:55:10.922Z,28.50
2022-08-16T08:57:45.408Z,28.40
2022-08-16T09:00:30.129Z,28.40
2022-08-16T09:03:04.704Z,28.50
2022-08-16T09:05:40.932Z,28.30
2022-08-16T09:08:13.681Z,28.20
2022-08-16T09:11:01.327Z,28.10
2022-08-16T09:13:33.470Z,28.10
2022-08-16T09:16:03.147Z,28.20
2022-08-16T09:18:35.768Z,28.30
2022-08-16T09:21:09.356Z,28.40
2022-08-16T09:23:38.876Z,28.30
2022-08-16T09:26:42.987Z,28.50
2022-08-16T09:29:14.950Z,28.50
2022-08-16T09:31:47.886Z,28.50
2022-08-16T09:34:24.880Z,28.40
2022-08-16T09:36:58.208Z,28.30
2022-08-16T09:39:41.311Z,28.40
2022-08-16T09:42:11.283Z,28.40
2022-08-16T09:45:09.654Z,28.30
2022-08-16T09:47:56.861Z,28.40
2022-08-16T09:50:23.314Z,28.40
2022-08-16T09:52:53.669Z,28.60
2022-08-16T09:55:25.322Z,28.70
2022-08-16T09:57:54.379Z,28.80
2022-08-16T10:00:44.132Z,28.80
2022-08-16T10:03:12.980Z,28.70
2022-08-16T10:05:43.013Z,28.70
2022-08-16T10:08:25.766Z,28.80
2022-08-16T10:11:13.143Z,29.00
2022-08-16T10:13:44.385Z,29.10
2022-08-16T10:19:01.202Z,29.40
2022-08-16T10:21:34.100Z,29.50
2022-08-16T10:24:03.505Z,29.50
2022-08-16T10:27:18.289Z,29.70
2022-08-16T10:29:22.345Z,29.60
2022-08-16T10:31:53.779Z,29.60
2022-08-16T10:34:32.291Z,29.60
2022-08-16T10:37:04.346Z,29.70
2022-08-16T10:39:41.792Z,29.70
2022-08-16T10:42:13.078Z,29.70
2022-08-16T10:44:42.711Z,29.90
2022-08-16T10:47:22.346Z,30.00
2022-08-16T10:49:50.915Z,30.30
2022-08-16T10:52:21.250Z,30.40
2022-08-16T10:55:43.679Z,30.50
2022-08-16T10:57:42.980Z,30.60
2022-08-16T11:00:22.295Z,30.80
2022-08-16T11:02:58.363Z,31.00
2022-08-16T11:05:58.984Z,31.10
2022-08-16T11:08:31.249Z,31.40
2022-08-16T11:11:10.596Z,31.60
2022-08-16T11:14:06.133Z,31.60
2022-08-16T11:19:22.599Z,31.70
2022-08-16T11:24:44.954Z,31.70
2022-08-16T11:27:23.027Z,31.80
2022-08-16T11:29:54.996Z,31.60
2022-08-16T11:32:32.555Z,31.60
2022-08-16T11:35:14.037Z,31.50
2022-08-16T11:40:44.346Z,31.40
2022-08-16T11:43:16.691Z,31.60
2022-08-16T11:45:53.768Z,31.60
2022-08-16T11:48:24.723Z,31.50
2022-08-16T11:50:53.328Z,31.60
2022-08-16T11:53:22.550Z,31.70
2022-08-16T11:55:55.100Z,32.00
2022-08-16T11:58:25.437Z,32.10
2022-08-16T12:00:56.221Z,32.10
2022-08-16T12:03:34.428Z,32.10
2022-08-16T12:06:10.590Z,32.30
2022-08-16T12:08:41.343Z,32.20
2022-08-16T12:11:14.022Z,32.00
2022-08-16T12:13:43.285Z,31.90
2022-08-16T12:16:17.567Z,32.10
2022-08-16T12:21:23.094Z,32.40
2022-08-16T12:23:51.620Z,32.40
2022-08-16T12:26:23.727Z,31.90
2022-08-16T12:28:55.826Z,31.40
2022-08-16T12:31:26.320Z,31.10
2022-08-16T12:33:57.458Z,31.00
2022-08-16T12:36:30.187Z,31.00
2022-08-16T12:38:59.568Z,30.90
2022-08-16T12:41:34.820Z,30.80
2022-08-16T12:44:04.509Z,30.80
2022-08-16T12:46:35.342Z,30.90
2022-08-16T12:49:07.073Z,30.80
2022-08-16T12:51:58.131Z,30.50
2022-08-16T12:54:28.706Z,30.30
2022-08-16T12:56:59.256Z,30.10
2022-08-16T12:59:31.136Z,29.80
2022-08-16T13:02:00.881Z,29.50
2022-08-16T13:04:31.318Z,29.20
2022-08-16T13:07:04.767Z,28.90
2022-08-16T13:09:47.895Z,27.90
2022-08-16T13:12:23.498Z,27.00
2022-08-16T13:14:55.942Z,26.80
2022-08-16T13:17:29.850Z,26.90
2022-08-16T13:20:08.880Z,27.00
2022-08-16T13:22:43.750Z,27.00
2022-08-16T13:25:19.392Z,27.10
2022-08-16T13:28:02.462Z,27.20
2022-08-16T13:30:37.307Z,27.10
2022-08-16T13:33:14.029Z,27.00
2022-08-16T13:35:55.829Z,27.00
2022-08-16T13:38:31.458Z,26.90
2022-08-16T13:41:08.595Z,26.70
2022-08-16T13:43:39.585Z,26.40
2022-08-16T13:46:08.436Z,26.10
2022-08-16T13:48:44.029Z,26.00
2022-08-16T13:51:17.824Z,25.80
2022-08-16T13:53:49.532Z,25.60
2022-08-16T13:56:25.167Z,25.40
2022-08-16T13:58:55.727Z,25.30
2022-08-16T14:01:25.133Z,25.40
2022-08-16T14:03:56.173Z,25.50
2022-08-16T14:06:24.893Z,25.70
2022-08-16T14:09:06.430Z,25.90
2022-08-16T14:11:36.419Z,26.10
2022-08-16T14:14:07.121Z,26.10
2022-08-16T14:16:39.756Z,26.20
2022-08-16T14:19:08.231Z,26.40
2022-08-16T14:21:37.328Z,26.60
2022-08-16T14:24:16.740Z,26.70
2022-08-16T14:26:57.033Z,26.90
2022-08-16T14:29:28.574Z,26.90
2022-08-16T14:32:01.048Z,27.10
2022-08-16T14:34:29.955Z,27.20
2022-08-16T14:36:59.606Z,27.70
2022-08-16T14:39:28.450Z,28.60
2022-08-16T14:41:57.274Z,29.40
2022-08-16T14:44:27.157Z,29.90
2022-08-16T14:46:56.926Z,30.20
2022-08-16T14:49:26.758Z,30.10
2022-08-16T14:51:55.332Z,30.30
2022-08-16T14:54:28.636Z,30.50
2022-08-16T14:56:59.177Z,30.50
2022-08-16T14:59:29.893Z,30.20
2022-08-16T15:02:00.902Z,29.50
2022-08-16T15:04:47.718Z,29.30
2022-08-16T15:07:23.053Z,28.90
2022-08-16T15:10:00.680Z,28.40
2022-08-16T15:12:33.636Z,28.40
2022-08-16T15:15:12.691Z,28.70
2022-08-16T15:17:55.975Z,28.90
2022-08-16T15:20:26.816Z,29.40
2022-08-16T15:22:56.174Z,29.60
2022-08-16T15:25:27.648Z,29.90
2022-08-16T15:27:58.416Z,30.10
2022-08-16T15:30:56.611Z,29.80
2022-08-16T15:33:21.339Z,29.80
2022-08-16T15:35:52.666Z,29.70
2022-08-16T15:38:31.664Z,29.50
2022-08-16T15:41:13.385Z,29.40
2022-08-16T15:43:42.028Z,29.40
2022-08-16T15:46:35.440Z,29.60
2022-08-16T15:49:17.056Z,29.60
2022-08-16T15:51:46.269Z,29.90
2022-08-16T15:54:30.010Z,30.00
2022-08-16T15:57:10.847Z,30.50
2022-08-16T15:59:48.905Z,30.70
2022-08-16T16:02:29.489Z,31.10
2022-08-16T16:05:02.465Z,31.20
2022-08-16T16:07:33.978Z,31.20
2022-08-16T16:10:07.902Z,31.30
2022-08-16T16:12:52.911Z,31.40
2022-08-16T16:15:25.337Z,31.70
2022-08-16T16:17:56.001Z,31.70
2022-08-16T16:20:27.830Z,31.60
2022-08-16T16:22:59.339Z,31.30
2022-08-16T16:25:29.350Z,31.20
2022-08-16T16:27:59.934Z,31.30
2022-08-16T16:30:38.158Z,31.20
2022-08-16T16:33:20.871Z,31.20
2022-08-16T16:35:55.588Z,31.20
2022-08-16T16:38:30.859Z,31.50
2022-08-16T16:41:00.963Z,31.70
2022-08-16T16:43:31.532Z,31.80
2022-08-16T16:46:02.070Z,31.90
2022-08-16T16:48:34.881Z,31.90
2022-08-16T16:51:09.889Z,31.90
2022-08-16T16:53:42.221Z,31.90
2022-08-16T16:56:20.043Z,31.60
2022-08-16T16:59:01.408Z,31.20
2022-08-16T17:01:41.247Z,31.20
2022-08-16T17:04:31.260Z,31.10
2022-08-16T17:07:03.644Z,31.00
2022-08-16T17:09:32.331Z,30.80
2022-08-16T17:12:08.894Z,30.60
2022-08-16T17:14:38.512Z,30.40
2022-08-16T17:17:26.123Z,30.10
2022-08-16T17:19:56.062Z,29.80
2022-08-16T17:25:16.652Z,29.00
2022-08-16T17:27:51.164Z,28.80
2022-08-16T17:30:22.539Z,28.60
2022-08-16T17:33:01.266Z,28.40
2022-08-16T17:35:36.592Z,28.40
2022-08-16T17:38:11.160Z,28.30
2022-08-16T17:39:26.603Z,29.30
2022-08-16T17:40:51.994Z,28.20
2022-08-16T17:43:29.857Z,28.00
2022-08-16T17:45:58.601Z,27.90
2022-08-16T17:48:27.264Z,27.70
2022-08-16T17:50:57.220Z,27.50
2022-08-16T17:53:26.069Z,27.40
2022-08-16T17:55:56.037Z,27.40
2022-08-16T17:58:24.799Z,27.30
2022-08-16T18:00:56.099Z,27.20
2022-08-16T18:04:03.253Z,27.20
2022-08-16T18:06:18.537Z,27.20
2022-08-16T18:08:50.540Z,27.10
2022-08-16T18:11:25.854Z,27.20
2022-08-16T18:13:56.455Z,27.10
2022-08-16T18:16:25.787Z,27.00
2022-08-16T18:18:54.314Z,27.00
2022-08-16T18:21:41.998Z,27.00
2022-08-16T18:24:11.795Z,26.90
2022-08-16T18:26:40.955Z,26.70
2022-08-16T18:29:09.932Z,26.50
2022-08-16T18:31:38.991Z,26.30
2022-08-16T18:34:07.582Z,26.40
2022-08-16T18:36:38.294Z,26.40
2022-08-16T18:39:07.063Z,26.40
2022-08-16T18:41:37.292Z,26.40
2022-08-16T18:44:25.545Z,26.50
2022-08-16T18:46:56.708Z,26.50
2022-08-16T18:49:25.353Z,26.60
2022-08-16T18:51:59.605Z,26.60
2022-08-16T18:54:30.205Z,26.60
2022-08-16T18:56:58.805Z,26.60
2022-08-16T18:59:28.902Z,26.40
2022-08-16T19:02:04.753Z,26.20
2022-08-16T19:04:50.646Z,26.10
2022-08-16T19:07:31.354Z,26.00
2022-08-16T19:10:01.447Z,26.00
2022-08-16T19:12:38.243Z,25.90
2022-08-16T19:15:15.664Z,26.00
2022-08-16T19:17:45.293Z,26.00
2022-08-16T19:20:15.294Z,26.00
2022-08-16T19:23:05.171Z,26.00
2022-08-16T19:25:46.225Z,25.90
2022-08-16T19:28:51.160Z,26.00
2022-08-16T19:31:15.347Z,26.00
2022-08-16T19:33:53.781Z,25.90
2022-08-16T19:36:30.421Z,25.80
2022-08-16T19:39:04.754Z,25.60
2022-08-16T19:41:35.304Z,25.60
2022-08-16T19:44:04.729Z,25.60
2022-08-16T19:46:33.213Z,25.50
2022-08-16T19:49:01.727Z,25.50
2022-08-16T19:51:30.304Z,25.60
2022-08-16T19:53:58.787Z,25.60
2022-08-16T19:56:28.658Z,25.50
2022-08-16T20:01:46.415Z,25.30
2022-08-16T20:04:14.985Z,25.40
2022-08-16T20:06:44.006Z,25.40
2022-08-16T20:09:15.558Z,25.40
2022-08-16T20:11:46.413Z,25.30
2022-08-16T20:14:24.062Z,25.30
2022-08-16T20:16:55.771Z,25.20
2022-08-16T20:19:24.539Z,25.10
2022-08-16T20:21:53.019Z,24.90
2022-08-16T20:24:37.030Z,24.90
2022-08-16T20:27:09.653Z,24.80
2022-08-16T20:29:41.870Z,24.90
2022-08-16T20:32:13.110Z,24.90
2022-08-16T20:34:42.667Z,24.90
2022-08-16T20:37:12.896Z,25.00
2022-08-16T20:39:44.241Z,25.00
2022-08-16T20:42:15.715Z,25.00
2022-08-16T20:44:45.101Z,24.90
2022-08-16T20:47:13.863Z,24.80
2022-08-16T20:49:42.748Z,24.90
2022-08-16T20:52:13.477Z,24.80
2022-08-16T20:54:42.528Z,24.80
2022-08-16T20:57:11.457Z,24.80
2022-08-16T20:59:41.421Z,24.70
2022-08-16T21:02:12.117Z,24.60
2022-08-16T21:04:41.017Z,24.60
2022-08-16T21:07:12.485Z,24.60
2022-08-16T21:09:41.958Z,24.70
2022-08-16T21:12:15.358Z,24.70
2022-08-16T21:14:48.269Z,24.70
2022-08-16T21:17:17.301Z,24.70
2022-08-16T21:19:46.639Z,24.70
2022-08-16T21:22:17.670Z,24.70
2022-08-16T21:24:46.950Z,24.60
2022-08-16T21:27:16.122Z,24.50
2022-08-16T21:29:47.851Z,24.40
2022-08-16T21:32:35.548Z,24.40
2022-08-16T21:35:09.237Z,24.40
2022-08-16T21:37:38.628Z,24.40
2022-08-16T21:40:08.949Z,24.40
2022-08-16T21:42:39.617Z,24.40
2022-08-16T21:45:13.843Z,24.30
2022-08-16T21:47:42.991Z,24.30
2022-08-16T21:50:12.904Z,24.30
2022-08-16T21:52:41.745Z,24.30
2022-08-16T21:55:10.947Z,24.20
2022-08-16T21:57:39.496Z,24.20
2022-08-16T22:00:13.488Z,24.20
2022-08-16T22:02:44.777Z,24.30
2022-08-16T22:05:15.278Z,24.10
2022-08-16T22:07:43.884Z,24.10
2022-08-16T22:11:05.007Z,24.10
2022-08-16T22:13:02.591Z,24.20
2022-08-16T22:15:32.679Z,24.20
2022-08-16T22:18:02.100Z,24.20
2022-08-16T22:20:30.995Z,24.20
2022-08-16T22:23:08.083Z,24.20
2022-08-16T22:25:37.049Z,24.20
2022-08-16T22:28:06.989Z,24.20
2022-08-16T22:30:36.960Z,24.20
2022-08-16T22:33:09.604Z,24.00
2022-08-16T22:35:43.493Z,24.00
2022-08-16T22:38:56.271Z,24.00
2022-08-16T22:41:01.773Z,24.00
2022-08-16T22:43:31.190Z,24.00
2022-08-16T22:46:01.334Z,24.00
2022-08-16T22:48:29.808Z,24.00
2022-08-16T22:50:58.284Z,23.90
2022-08-16T22:53:27.002Z,23.80
2022-08-16T22:55:56.387Z,23.80
2022-08-16T22:58:33.995Z,23.80
2022-08-16T23:01:08.455Z,23.70
2022-08-16T23:03:38.738Z,23.70
2022-08-16T23:06:08.713Z,23.60
2022-08-16T23:08:40.959Z,23.70
2022-08-16T23:11:11.432Z,23.70
2022-08-16T23:13:52.718Z,23.60
2022-08-16T23:16:33.483Z,23.60
2022-08-16T23:19:03.600Z,23.60
2022-08-16T23:21:32.352Z,23.60
2022-08-16T23:24:00.806Z,23.50
2022-08-16T23:26:45.406Z,23.50
2022-08-16T23:29:23.535Z,23.50
2022-08-16T23:31:58.774Z,23.50
2022-08-16T23:34:28.881Z,23.50
2022-08-16T23:36:57.976Z,23.60
2022-08-16T23:39:27.066Z,23.60
2022-08-16T23:41:55.747Z,23.60
2022-08-16T23:44:42.393Z,23.60
2022-08-16T23:47:15.511Z,23.60
2022-08-16T23:49:57.379Z,23.60
2022-08-16T23:52:48.799Z,23.50
2022-08-16T23:55:19.398Z,23.40
2022-08-16T23:57:48.127Z,23.30
